Time;durP1;ratioP1;P1;durP2;ratioP2;P2;SDS_P1;SDS_P2;PMS_P1;PMS_P2;Temp;Humidity;BMP_temperature;BMP_pressure;BME280_temperature;BME280_humidity;BME280_pressure;Samples;Min_cycle;Max_cycle;Signal;HPM_P1;HPM_P2
2022/10/25 00:00:30;;;;;;;8.83;2.50;;;;;;;;;;5051795;28;20414;-42
2022/10/25 00:02:56;;;;;;;12.20;2.73;;;;;;;;;;5052209;28;20422;-43
2022/10/25 00:05:22;;;;;;;3.97;2.30;;;;;;;;;;5052738;28;20404;-42
2022/10/25 00:07:48;;;;;;;5.83;2.23;;;;;;;;;;5052188;28;21013;-42
2022/10/25 00:10:14;;;;;;;4.50;2.40;;;;;;;;;;5051667;28;20415;-42
2022/10/25 00:12:42;;;;;;;5.83;2.30;;;;;;;;;;5052323;28;20430;-42
2022/10/25 00:15:08;;;;;;;3.93;1.77;;;;;;;;;;5051838;28;20439;-42
2022/10/25 00:17:34;;;;;;;4.23;2.00;;;;;;;;;;5051982;28;20461;-42
2022/10/25 00:20:00;;;;;;;6.50;2.77;;;;;;;;;;5051447;28;20427;-42
2022/10/25 00:22:28;;;;;;;5.47;2.70;;;;;;;;;;5052408;28;20415;-43
2022/10/25 00:24:54;;;;;;;7.20;3.47;;;;;;;;;;5051754;28;20403;-42
2022/10/25 00:27:20;;;;;;;13.90;2.70;;;;;;;;;;5052208;28;20591;-42
2022/10/25 00:29:46;;;;;;;5.70;2.70;;;;;;;;;;5051267;28;20423;-42
2022/10/25 00:32:12;;;;;;;6.77;2.07;;;;;;;;;;5051774;28;20401;-42
2022/10/25 00:34:41;;;;;;;4.50;2.00;;;;;;;;;;5052001;28;20460;-42
2022/10/25 00:37:07;;;;;;;6.60;2.27;;;;;;;;;;5051995;28;20391;-42
2022/10/25 00:39:33;;;;;;;8.37;3.33;;;;;;;;;;5051122;28;20414;-42
2022/10/25 00:41:58;;;;;;;8.57;2.53;;;;;;;;;;5051947;28;20878;-42
2022/10/25 00:44:40;;;;;;;7.00;2.50;;;;;;;;;;5051721;28;20734;-42
2022/10/25 00:47:21;;;;;;;9.70;2.60;;;;;;;;;;5051641;28;20404;-42
2022/10/25 00:49:51;;;;;;;3.50;2.63;;;;;;;;;;5050880;28;20426;-42
2022/10/25 00:52:17;;;;;;;3.40;2.17;;;;;;;;;;5051724;28;20416;-42
2022/10/25 00:54:45;;;;;;;9.50;3.27;;;;;;;;;;5051431;28;20412;-42
2022/10/25 00:57:19;;;;;;;5.43;2.23;;;;;;;;;;5051136;28;20823;-42
2022/10/25 00:59:45;;;;;;;6.80;2.30;;;;;;;;;;5051031;28;20413;-42
2022/10/25 01:02:12;;;;;;;10.43;2.40;;;;;;;;;;5050913;28;20434;-42
2022/10/25 01:04:38;;;;;;;6.37;2.30;;;;;;;;;;5050869;28;20980;-42
2022/10/25 01:07:04;;;;;;;14.77;2.60;;;;;;;;;;5051355;28;20873;-42
2022/10/25 01:09:31;;;;;;;3.47;2.00;;;;;;;;;;5050880;28;20425;-42
2022/10/25 01:11:57;;;;;;;2.20;1.70;;;;;;;;;;5051408;28;20400;-42
2022/10/25 01:14:25;;;;;;;4.30;2.10;;;;;;;;;;5051232;28;20803;-43
2022/10/25 01:17:09;;;;;;;10.10;3.03;;;;;;;;;;5051534;28;20400;-43
2022/10/25 01:19:54;;;;;;;9.43;2.70;;;;;;;;;;5050499;28;20458;-42
2022/10/25 01:22:29;;;;;;;4.70;2.30;;;;;;;;;;5051230;28;20403;-43
2022/10/25 01:24:55;;;;;;;4.53;2.07;;;;;;;;;;5051437;28;20483;-42
2022/10/25 01:27:30;;;;;;;7.47;2.30;;;;;;;;;;5051447;28;20544;-42
2022/10/25 01:30:02;;;;;;;3.67;2.23;;;;;;;;;;5050682;28;20454;-43
2022/10/25 01:32:40;;;;;;;8.83;2.90;;;;;;;;;;5051294;28;20425;-42
2022/10/25 01:35:12;;;;;;;7.67;2.30;;;;;;;;;;5051088;28;20785;-42
2022/10/25 01:37:44;;;;;;;13.00;2.70;;;;;;;;;;5051358;28;20409;-42
2022/10/25 01:40:20;;;;;;;10.93;2.47;;;;;;;;;;5050830;28;20420;-42
2022/10/25 01:43:11;;;;;;;10.53;3.00;;;;;;;;;;5051243;28;20902;-42
2022/10/25 01:45:41;;;;;;;5.60;2.40;;;;;;;;;;5051031;28;20372;-42
2022/10/25 01:48:22;;;;;;;5.20;1.77;;;;;;;;;;5051045;28;20452;-42
2022/10/25 01:50:48;;;;;;;17.73;2.43;;;;;;;;;;5050825;28;20434;-42
2022/10/25 01:53:14;;;;;;;6.50;2.37;;;;;;;;;;5054199;28;21025;-42
2022/10/25 01:55:54;;;;;;;4.13;1.90;;;;;;;;;;5054869;28;20768;-43
2022/10/25 01:58:35;;;;;;;11.37;2.33;;;;;;;;;;5054743;28;20413;-42
2022/10/25 02:01:20;;;;;;;7.27;2.20;;;;;;;;;;5054442;28;20462;-42
2022/10/25 02:03:59;;;;;;;3.27;1.60;;;;;;;;;;5054350;28;20459;-42
2022/10/25 02:06:43;;;;;;;5.10;2.43;;;;;;;;;;5054755;28;20439;-43
2022/10/25 02:09:18;;;;;;;5.23;2.00;;;;;;;;;;5053847;28;21015;-41
2022/10/25 02:11:44;;;;;;;7.17;1.90;;;;;;;;;;5054599;28;20400;-42
2022/10/25 02:14:17;;;;;;;3.50;1.67;;;;;;;;;;5054205;28;20780;-42
2022/10/25 02:16:46;;;;;;;2.63;1.80;;;;;;;;;;5054510;28;20424;-42
2022/10/25 02:19:14;;;;;;;5.87;2.40;;;;;;;;;;5053702;28;20834;-42
2022/10/25 02:21:41;;;;;;;6.10;1.80;;;;;;;;;;5054418;28;20397;-42
2022/10/25 02:24:16;;;;;;;4.63;2.10;;;;;;;;;;5054074;28;20420;-42
2022/10/25 02:26:44;;;;;;;2.83;1.63;;;;;;;;;;5054109;28;20431;-42
2022/10/25 02:29:11;;;;;;;9.20;2.97;;;;;;;;;;5053620;28;20467;-41
2022/10/25 02:31:37;;;;;;;4.80;3.40;;;;;;;;;;5054345;28;20419;-42
2022/10/25 02:34:04;;;;;;;7.93;1.90;;;;;;;;;;5053952;28;20378;-42
2022/10/25 02:36:30;;;;;;;5.00;2.23;;;;;;;;;;5054067;28;20408;-42
2022/10/25 02:38:56;;;;;;;5.37;1.87;;;;;;;;;;5053261;28;20432;-43
2022/10/25 02:41:22;;;;;;;7.70;1.80;;;;;;;;;;5053760;28;20875;-42
2022/10/25 02:43:48;;;;;;;6.03;1.63;;;;;;;;;;5053856;28;20823;-42
2022/10/25 02:46:16;;;;;;;10.10;3.13;;;;;;;;;;5053799;28;20398;-42
2022/10/25 02:48:42;;;;;;;5.13;1.60;;;;;;;;;;5053560;28;20615;-43
2022/10/25 02:51:09;;;;;;;12.40;2.10;;;;;;;;;;5053790;28;20951;-42
2022/10/25 02:53:35;;;;;;;10.53;2.10;;;;;;;;;;5053754;28;20383;-42
2022/10/25 02:56:01;;;;;;;9.60;1.80;;;;;;;;;;5053809;28;20409;-43
2022/10/25 02:58:29;;;;;;;8.80;2.00;;;;;;;;;;5053381;28;20412;-43
2022/10/25 03:00:55;;;;;;;5.27;1.60;;;;;;;;;;5053130;28;20497;-42
2022/10/25 03:03:21;;;;;;;3.27;1.93;;;;;;;;;;5052500;28;20523;-42
2022/10/25 03:05:47;;;;;;;10.63;2.40;;;;;;;;;;5053281;28;20405;-43
2022/10/25 03:08:12;;;;;;;8.93;2.40;;;;;;;;;;5053305;28;20460;-43
2022/10/25 03:10:38;;;;;;;6.57;1.80;;;;;;;;;;5052701;28;20409;-42
2022/10/25 03:13:04;;;;;;;5.97;2.03;;;;;;;;;;5053638;28;20433;-43
2022/10/25 03:15:30;;;;;;;9.53;1.63;;;;;;;;;;5053269;28;20409;-43
2022/10/25 03:17:56;;;;;;;3.03;2.07;;;;;;;;;;5053232;28;20458;-43
2022/10/25 03:20:22;;;;;;;3.17;2.07;;;;;;;;;;5052557;28;20860;-42
2022/10/25 03:22:48;;;;;;;7.80;2.30;;;;;;;;;;5053270;28;20492;-42
2022/10/25 03:25:14;;;;;;;12.53;2.30;;;;;;;;;;5052848;28;20471;-42
2022/10/25 03:27:40;;;;;;;6.17;2.50;;;;;;;;;;5053276;28;20457;-42
2022/10/25 03:30:06;;;;;;;6.80;2.37;;;;;;;;;;5052437;28;20419;-42
2022/10/25 03:32:34;;;;;;;5.67;1.77;;;;;;;;;;5053083;28;20898;-43
2022/10/25 03:35:00;;;;;;;8.90;1.90;;;;;;;;;;5052747;28;20402;-42
2022/10/25 03:37:26;;;;;;;4.27;1.50;;;;;;;;;;5052869;28;20478;-43
2022/10/25 03:39:53;;;;;;;6.20;2.50;;;;;;;;;;5052119;28;20748;-43
2022/10/25 03:42:19;;;;;;;5.23;2.20;;;;;;;;;;5052887;28;20744;-43
2022/10/25 03:44:45;;;;;;;6.17;2.40;;;;;;;;;;5052438;28;20909;-42
2022/10/25 03:47:11;;;;;;;4.03;1.80;;;;;;;;;;5052735;28;20492;-42
2022/10/25 03:49:37;;;;;;;10.23;2.07;;;;;;;;;;5051931;28;20915;-43
2022/10/25 03:52:06;;;;;;;13.00;2.27;;;;;;;;;;5052560;28;20409;-43
2022/10/25 03:54:32;;;;;;;4.23;2.10;;;;;;;;;;5052484;28;20402;-43
2022/10/25 03:56:57;;;;;;;8.37;2.20;;;;;;;;;;5052668;28;20413;-43
2022/10/25 03:59:23;;;;;;;8.10;3.00;;;;;;;;;;5051852;28;20428;-43
2022/10/25 04:01:49;;;;;;;9.20;2.23;;;;;;;;;;5052471;28;20409;-42
2022/10/25 04:04:15;;;;;;;4.17;2.10;;;;;;;;;;5052056;28;20535;-43
2022/10/25 04:06:41;;;;;;;7.30;2.27;;;;;;;;;;5052387;28;20500;-43
2022/10/25 04:09:07;;;;;;;3.73;2.03;;;;;;;;;;5051480;28;20514;-42
2022/10/25 04:11:33;;;;;;;8.10;1.70;;;;;;;;;;5052311;28;20449;-42
2022/10/25 04:13:59;;;;;;;6.07;2.37;;;;;;;;;;5052167;28;20407;-42
2022/10/25 04:16:25;;;;;;;3.87;2.00;;;;;;;;;;5051839;28;20461;-42
2022/10/25 04:18:56;;;;;;;10.37;2.33;;;;;;;;;;5051412;28;20935;-42
2022/10/25 04:21:22;;;;;;;4.00;2.50;;;;;;;;;;5052054;28;20932;-42
2022/10/25 04:23:51;;;;;;;6.77;1.87;;;;;;;;;;5051967;28;20438;-43
2022/10/25 04:26:18;;;;;;;8.23;2.00;;;;;;;;;;5052276;28;20890;-42
2022/10/25 04:28:48;;;;;;;6.47;1.93;;;;;;;;;;5051834;28;20467;-42
2022/10/25 04:31:14;;;;;;;3.07;1.97;;;;;;;;;;5051561;28;20901;-42
2022/10/25 04:33:40;;;;;;;3.00;1.77;;;;;;;;;;5051859;28;20510;-43
2022/10/25 04:36:06;;;;;;;5.40;2.43;;;;;;;;;;5051509;28;20412;-42
2022/10/25 04:38:32;;;;;;;5.00;2.03;;;;;;;;;;5051787;28;20406;-42
2022/10/25 04:40:58;;;;;;;4.73;2.17;;;;;;;;;;5051308;28;20409;-42
2022/10/25 04:43:25;;;;;;;9.07;2.30;;;;;;;;;;5051778;28;20411;-42
2022/10/25 04:45:51;;;;;;;3.90;1.60;;;;;;;;;;5051641;28;20915;-43
2022/10/25 04:48:17;;;;;;;6.93;2.07;;;;;;;;;;5051581;28;20453;-43
2022/10/25 04:50:43;;;;;;;4.90;2.00;;;;;;;;;;5051047;28;20836;-43
2022/10/25 04:53:09;;;;;;;3.00;1.50;;;;;;;;;;5051767;28;20911;-42
2022/10/25 04:55:36;;;;;;;8.90;1.83;;;;;;;;;;5051483;28;20401;-43
2022/10/25 04:58:02;;;;;;;5.73;1.53;;;;;;;;;;5051637;28;20428;-43
2022/10/25 05:00:28;;;;;;;5.10;2.40;;;;;;;;;;5046673;28;20848;-43
2022/10/25 05:02:54;;;;;;;4.33;2.40;;;;;;;;;;5031413;28;20455;-42
2022/10/25 05:05:22;;;;;;;5.33;2.17;;;;;;;;;;5031701;28;20409;-42
2022/10/25 05:07:48;;;;;;;6.53;2.27;;;;;;;;;;5031593;28;20564;-41
2022/10/25 05:10:14;;;;;;;6.43;2.53;;;;;;;;;;5031033;28;20943;-41
2022/10/25 05:12:40;;;;;;;3.30;2.10;;;;;;;;;;5031530;28;20492;-41
2022/10/25 05:15:06;;;;;;;4.83;2.37;;;;;;;;;;5031737;28;20491;-41
2022/10/25 05:17:32;;;;;;;6.60;2.50;;;;;;;;;;5031768;28;20457;-41
2022/10/25 05:19:58;;;;;;;5.77;1.90;;;;;;;;;;5030179;28;20829;-42
2022/10/25 05:22:24;;;;;;;7.57;2.17;;;;;;;;;;5029720;28;20401;-41
2022/10/25 05:24:50;;;;;;;8.30;2.80;;;;;;;;;;5029719;28;20452;-43
2022/10/25 05:27:17;;;;;;;6.53;2.03;;;;;;;;;;5031533;28;20443;-42
2022/10/25 05:29:43;;;;;;;4.47;1.90;;;;;;;;;;5034649;28;20429;-41
2022/10/25 05:32:09;;;;;;;6.73;2.00;;;;;;;;;;5035581;28;20406;-41
2022/10/25 05:34:36;;;;;;;3.87;2.17;;;;;;;;;;5035432;28;20460;-41
2022/10/25 05:37:02;;;;;;;4.73;2.53;;;;;;;;;;5035275;28;20812;-41
2022/10/25 05:39:27;;;;;;;5.73;2.10;;;;;;;;;;5034472;28;20507;-41
2022/10/25 05:41:53;;;;;;;7.10;2.20;;;;;;;;;;5035250;28;20401;-41
2022/10/25 05:44:19;;;;;;;8.30;2.80;;;;;;;;;;5035151;28;20894;-41
2022/10/25 05:46:45;;;;;;;4.33;2.10;;;;;;;;;;5035035;28;20866;-41
2022/10/25 05:49:11;;;;;;;9.90;2.40;;;;;;;;;;5034328;28;20491;-42
2022/10/25 05:51:39;;;;;;;9.67;2.10;;;;;;;;;;5035158;28;20402;-41
2022/10/25 05:54:12;;;;;;;6.80;2.37;;;;;;;;;;5034741;28;20402;-41
2022/10/25 05:56:38;;;;;;;3.53;2.90;;;;;;;;;;5033833;28;20401;-45
2022/10/25 05:59:07;;;;;;;9.77;2.10;;;;;;;;;;5052510;28;20523;-41
2022/10/25 06:01:33;;;;;;;3.17;2.23;;;;;;;;;;5053991;28;20407;-41
2022/10/25 06:03:59;;;;;;;9.30;2.60;;;;;;;;;;5054176;28;20434;-41
2022/10/25 06:06:28;;;;;;;4.73;2.20;;;;;;;;;;5054321;28;20763;-42
2022/10/25 06:08:56;;;;;;;7.03;2.63;;;;;;;;;;5054260;28;20491;-42
2022/10/25 06:11:22;;;;;;;11.00;2.17;;;;;;;;;;5054278;28;20409;-42
2022/10/25 06:13:48;;;;;;;7.27;2.63;;;;;;;;;;5054223;28;20454;-42
2022/10/25 06:16:15;;;;;;;4.53;1.87;;;;;;;;;;5054156;28;20441;-42
2022/10/25 06:18:41;;;;;;;7.67;2.63;;;;;;;;;;5054073;28;20420;-42
2022/10/25 06:21:09;;;;;;;3.40;3.10;;;;;;;;;;5053859;28;20890;-42
2022/10/25 06:23:35;;;;;;;7.13;2.60;;;;;;;;;;5054038;28;20412;-42
2022/10/25 06:26:02;;;;;;;6.57;2.43;;;;;;;;;;5054244;28;20417;-42
2022/10/25 06:28:28;;;;;;;6.47;3.00;;;;;;;;;;5054066;28;20545;-42
2022/10/25 06:30:59;;;;;;;8.30;2.80;;;;;;;;;;5053702;28;20570;-42
2022/10/25 06:33:25;;;;;;;8.93;2.83;;;;;;;;;;5054492;28;20375;-42
2022/10/25 06:35:54;;;;;;;4.67;2.60;;;;;;;;;;5053820;28;20401;-42
2022/10/25 06:38:20;;;;;;;7.53;2.40;;;;;;;;;;5053483;28;20416;-42
2022/10/25 06:40:46;;;;;;;4.20;2.73;;;;;;;;;;5053298;28;20508;-42
2022/10/25 06:43:12;;;;;;;4.87;2.10;;;;;;;;;;5054268;28;20491;-42
2022/10/25 06:45:38;;;;;;;11.37;2.90;;;;;;;;;;5045930;28;20425;-42
2022/10/25 06:48:04;;;;;;;4.67;2.27;;;;;;;;;;5033858;28;20817;-42
2022/10/25 06:50:30;;;;;;;6.63;1.97;;;;;;;;;;5033148;28;20836;-42
2022/10/25 06:52:57;;;;;;;6.67;2.57;;;;;;;;;;5033804;28;20397;-42
2022/10/25 06:55:23;;;;;;;2.53;2.33;;;;;;;;;;5033712;28;20398;-42
2022/10/25 06:57:50;;;;;;;4.80;2.50;;;;;;;;;;5033876;28;20404;-42
2022/10/25 07:00:16;;;;;;;7.40;3.23;;;;;;;;;;5032969;28;20431;-42
2022/10/25 07:02:43;;;;;;;9.60;2.80;;;;;;;;;;5032716;28;20410;-42
2022/10/25 07:05:09;;;;;;;4.63;2.53;;;;;;;;;;5032098;28;20476;-42
2022/10/25 07:07:35;;;;;;;7.73;2.90;;;;;;;;;;5031692;28;20929;-42
2022/10/25 07:10:01;;;;;;;5.97;2.10;;;;;;;;;;5031335;28;20446;-43
2022/10/25 07:12:28;;;;;;;8.53;3.93;;;;;;;;;;5033512;28;20410;-42
2022/10/25 07:14:54;;;;;;;4.57;2.57;;;;;;;;;;5033227;28;20477;-42
2022/10/25 07:17:21;;;;;;;12.07;2.57;;;;;;;;;;5033349;28;20816;-42
2022/10/25 07:19:47;;;;;;;12.00;2.93;;;;;;;;;;5032542;28;20433;-42
2022/10/25 07:22:14;;;;;;;12.10;2.97;;;;;;;;;;5033327;28;20756;-42
2022/10/25 07:24:40;;;;;;;5.50;2.50;;;;;;;;;;5032936;28;20409;-42
2022/10/25 07:27:07;;;;;;;7.37;2.87;;;;;;;;;;5033327;28;20925;-42
2022/10/25 07:29:33;;;;;;;7.57;2.57;;;;;;;;;;5032264;28;20486;-42
2022/10/25 07:31:59;;;;;;;9.97;2.57;;;;;;;;;;5033033;28;20938;-42
2022/10/25 07:34:25;;;;;;;3.97;2.00;;;;;;;;;;5032735;28;20406;-42
2022/10/25 07:36:51;;;;;;;7.83;2.40;;;;;;;;;;5033175;28;20410;-42
2022/10/25 07:39:16;;;;;;;5.77;2.10;;;;;;;;;;5032356;28;20410;-42
2022/10/25 07:41:43;;;;;;;5.17;2.30;;;;;;;;;;5032940;28;20408;-42
2022/10/25 07:44:09;;;;;;;9.80;2.20;;;;;;;;;;5032678;28;20405;-42
2022/10/25 07:46:35;;;;;;;3.10;2.03;;;;;;;;;;5033002;28;20406;-42
2022/10/25 07:49:01;;;;;;;7.93;2.23;;;;;;;;;;5032163;28;20830;-42
2022/10/25 07:51:27;;;;;;;2.10;1.90;;;;;;;;;;5032350;28;20398;-42
2022/10/25 07:53:53;;;;;;;8.80;2.27;;;;;;;;;;5032626;28;20403;-42
2022/10/25 07:56:19;;;;;;;8.43;2.30;;;;;;;;;;5032675;28;20453;-42
2022/10/25 07:58:45;;;;;;;3.33;2.07;;;;;;;;;;5032217;28;20425;-43
2022/10/25 08:01:14;;;;;;;5.13;3.30;;;;;;;;;;5032304;28;20902;-42
2022/10/25 08:03:39;;;;;;;4.33;2.10;;;;;;;;;;5032159;28;20814;-42
2022/10/25 08:06:06;;;;;;;4.63;2.00;;;;;;;;;;5032432;28;20928;-42
2022/10/25 08:08:31;;;;;;;4.80;2.10;;;;;;;;;;5032211;28;20468;-43
2022/10/25 08:10:58;;;;;;;8.50;2.63;;;;;;;;;;5031949;28;20410;-42
2022/10/25 08:13:24;;;;;;;8.27;2.70;;;;;;;;;;5043708;28;20824;-42
2022/10/25 08:15:51;;;;;;;7.90;2.57;;;;;;;;;;5051985;28;20387;-42
2022/10/25 08:18:17;;;;;;;4.17;2.50;;;;;;;;;;5052058;28;20380;-42
2022/10/25 08:20:43;;;;;;;7.67;3.00;;;;;;;;;;5051575;28;20529;-42
2022/10/25 08:23:09;;;;;;;4.57;2.80;;;;;;;;;;5052270;28;20382;-42
2022/10/25 08:25:35;;;;;;;7.77;2.63;;;;;;;;;;5051848;28;20417;-42
2022/10/25 08:28:01;;;;;;;9.50;2.30;;;;;;;;;;5051665;28;20471;-42
2022/10/25 08:30:27;;;;;;;2.63;2.30;;;;;;;;;;5041706;28;20741;-43
2022/10/25 08:32:53;;;;;;;8.67;2.17;;;;;;;;;;5044519;28;20763;-42
2022/10/25 08:35:19;;;;;;;6.60;1.77;;;;;;;;;;5051704;28;20378;-42
2022/10/25 08:37:44;;;;;;;4.60;2.27;;;;;;;;;;5051021;28;20440;-42
2022/10/25 08:40:16;;;;;;;3.53;2.27;;;;;;;;;;5050272;28;20456;-42
2022/10/25 08:42:57;;;;;;;4.77;2.00;;;;;;;;;;5051882;28;20373;-42
2022/10/25 08:45:33;;;;;;;4.60;1.73;;;;;;;;;;5043159;28;20494;-42
2022/10/25 08:47:59;;;;;;;7.80;2.00;;;;;;;;;;5047573;28;21002;-42
2022/10/25 08:50:35;;;;;;;7.30;2.30;;;;;;;;;;5051192;28;20925;-42
2022/10/25 08:53:03;;;;;;;5.43;2.30;;;;;;;;;;5051719;28;20483;-42
2022/10/25 08:55:32;;;;;;;9.67;1.90;;;;;;;;;;5051588;28;20384;-42
2022/10/25 08:57:59;;;;;;;6.17;2.17;;;;;;;;;;5051450;28;20411;-42
2022/10/25 09:00:28;;;;;;;4.83;1.90;;;;;;;;;;5051078;28;20974;-42
2022/10/25 09:02:55;;;;;;;7.03;2.73;;;;;;;;;;5054267;28;20456;-42
2022/10/25 09:05:28;;;;;;;3.17;1.67;;;;;;;;;;5056092;28;20871;-42
2022/10/25 09:08:12;;;;;;;6.43;1.70;;;;;;;;;;5053716;28;20430;-42
2022/10/25 09:10:55;;;;;;;6.87;2.40;;;;;;;;;;5053288;28;20467;-43
2022/10/25 09:13:32;;;;;;;4.70;1.90;;;;;;;;;;5042364;28;20881;-42
2022/10/25 09:16:00;;;;;;;3.33;2.03;;;;;;;;;;5035302;28;20393;-42
2022/10/25 09:18:31;;;;;;;4.60;1.67;;;;;;;;;;5035266;28;20407;-42
2022/10/25 09:20:58;;;;;;;5.77;2.23;;;;;;;;;;5034747;28;20395;-42
2022/10/25 09:23:26;;;;;;;4.67;1.63;;;;;;;;;;5035030;28;20408;-43
2022/10/25 09:26:08;;;;;;;6.33;2.10;;;;;;;;;;5038810;28;20394;-43
2022/10/25 09:28:54;;;;;;;5.70;1.93;;;;;;;;;;5043610;28;20544;-42
2022/10/25 09:31:22;;;;;;;7.30;1.70;;;;;;;;;;5033500;28;20511;-42
2022/10/25 09:33:50;;;;;;;9.57;3.47;;;;;;;;;;5034721;28;20385;-42
2022/10/25 09:36:16;;;;;;;5.60;2.00;;;;;;;;;;5034136;28;20395;-42
2022/10/25 09:38:48;;;;;;;2.70;2.00;;;;;;;;;;5034995;28;20406;-42
2022/10/25 09:41:17;;;;;;;6.13;2.10;;;;;;;;;;5035080;28;20505;-42
2022/10/25 09:43:55;;;;;;;6.07;1.83;;;;;;;;;;5034658;28;20427;-43
2022/10/25 09:46:30;;;;;;;6.70;2.03;;;;;;;;;;5035103;28;20414;-43
2022/10/25 09:49:02;;;;;;;10.03;2.00;;;;;;;;;;5034690;28;20454;-43
2022/10/25 09:51:37;;;;;;;5.13;2.03;;;;;;;;;;5034769;28;20770;-43
2022/10/25 09:54:16;;;;;;;5.97;1.80;;;;;;;;;;5034592;28;20529;-42
2022/10/25 09:56:42;;;;;;;2.90;1.47;;;;;;;;;;5034992;28;20379;-42
2022/10/25 09:59:12;;;;;;;3.50;1.80;;;;;;;;;;5034737;28;20764;-42
2022/10/25 10:01:38;;;;;;;4.47;1.90;;;;;;;;;;5034923;28;20408;-42
2022/10/25 10:04:23;;;;;;;5.60;1.80;;;;;;;;;;5034486;28;20822;-43
2022/10/25 10:06:51;;;;;;;3.03;1.60;;;;;;;;;;5046739;28;20453;-42
2022/10/25 10:09:18;;;;;;;3.43;1.70;;;;;;;;;;5053930;28;20560;-42
2022/10/25 10:11:46;;;;;;;3.27;1.60;;;;;;;;;;5054422;28;20423;-42
2022/10/25 10:14:33;;;;;;;6.37;1.70;;;;;;;;;;5053815;28;20395;-42
2022/10/25 10:17:00;;;;;;;8.73;2.20;;;;;;;;;;5054242;28;20868;-42
2022/10/25 10:19:30;;;;;;;5.33;1.70;;;;;;;;;;5053784;28;20965;-42
2022/10/25 10:22:00;;;;;;;5.70;1.77;;;;;;;;;;5054629;28;20800;-42
2022/10/25 10:24:28;;;;;;;3.97;1.50;;;;;;;;;;5053927;28;20902;-42
2022/10/25 10:26:56;;;;;;;3.57;1.80;;;;;;;;;;5054231;28;20413;-42
2022/10/25 10:29:23;;;;;;;5.07;1.97;;;;;;;;;;5053404;28;20530;-42
2022/10/25 10:31:50;;;;;;;3.00;2.03;;;;;;;;;;5054165;28;20432;-42
2022/10/25 10:34:21;;;;;;;12.23;3.67;;;;;;;;;;5053737;28;20364;-42
2022/10/25 10:37:00;;;;;;;8.90;2.33;;;;;;;;;;5053968;28;20401;-42
2022/10/25 10:39:26;;;;;;;4.97;1.73;;;;;;;;;;5053420;28;20397;-42
2022/10/25 10:41:59;;;;;;;5.60;2.00;;;;;;;;;;5053756;28;20413;-42
2022/10/25 10:44:26;;;;;;;6.17;2.13;;;;;;;;;;5053702;28;20382;-42
2022/10/25 10:46:54;;;;;;;4.87;2.33;;;;;;;;;;5054014;28;20432;-42
2022/10/25 10:49:21;;;;;;;6.37;2.23;;;;;;;;;;5053244;28;20461;-42
2022/10/25 10:51:47;;;;;;;3.60;2.00;;;;;;;;;;5053797;28;20394;-41
2022/10/25 10:54:22;;;;;;;5.93;2.23;;;;;;;;;;5052425;28;20883;-41
2022/10/25 10:57:02;;;;;;;4.83;1.70;;;;;;;;;;5042205;28;20376;-41
2022/10/25 10:59:36;;;;;;;2.60;1.63;;;;;;;;;;5052992;28;20426;-41
2022/10/25 11:02:20;;;;;;;5.23;1.73;;;;;;;;;;5038924;28;20481;-41
2022/10/25 11:04:48;;;;;;;7.17;2.70;;;;;;;;;;5033721;28;20868;-41
2022/10/25 11:07:19;;;;;;;5.07;1.73;;;;;;;;;;5033586;28;20470;-41
2022/10/25 11:09:46;;;;;;;3.83;1.90;;;;;;;;;;5032866;28;20603;-42
2022/10/25 11:12:16;;;;;;;6.10;1.70;;;;;;;;;;5033970;28;20436;-44
2022/10/25 11:14:42;;;;;;;4.67;2.03;;;;;;;;;;5032381;28;20401;-42
2022/10/25 11:17:15;;;;;;;5.60;2.50;;;;;;;;;;5032273;28;20757;-41
2022/10/25 11:19:41;;;;;;;5.03;2.33;;;;;;;;;;5032454;28;20757;-41
2022/10/25 11:22:21;;;;;;;9.43;1.80;;;;;;;;;;5033115;28;20415;-42
2022/10/25 11:25:02;;;;;;;8.90;2.13;;;;;;;;;;5032061;28;20387;-41
2022/10/25 11:27:34;;;;;;;4.70;2.17;;;;;;;;;;5032907;28;20402;-41
2022/10/25 11:30:03;;;;;;;3.77;1.83;;;;;;;;;;5032389;28;20498;-42
2022/10/25 11:32:48;;;;;;;5.07;2.00;;;;;;;;;;5033396;28;20430;-42
2022/10/25 11:35:34;;;;;;;10.10;2.00;;;;;;;;;;5033063;28;20481;-43
2022/10/25 11:38:02;;;;;;;2.27;1.60;;;;;;;;;;5033212;28;20555;-45
2022/10/25 11:40:30;;;;;;;9.80;1.70;;;;;;;;;;5034785;28;20428;-46
2022/10/25 11:43:00;;;;;;;7.70;2.23;;;;;;;;;;5035466;28;20406;-43
2022/10/25 11:45:47;;;;;;;5.83;2.07;;;;;;;;;;5035633;28;20421;-46
2022/10/25 11:48:32;;;;;;;7.13;1.83;;;;;;;;;;5034904;28;20446;-45
2022/10/25 11:51:03;;;;;;;3.73;1.33;;;;;;;;;;5034712;28;20425;-45
2022/10/25 11:53:38;;;;;;;3.90;1.47;;;;;;;;;;5035216;28;20398;-46
2022/10/25 11:56:31;;;;;;;11.20;2.37;;;;;;;;;;5034953;28;20760;-46
2022/10/25 11:59:05;;;;;;;4.90;1.93;;;;;;;;;;5035141;28;20509;-45
2022/10/25 12:01:50;;;;;;;2.60;1.63;;;;;;;;;;5034808;28;20879;-45
2022/10/25 12:04:24;;;;;;;8.10;2.23;;;;;;;;;;5033499;28;20940;-43
2022/10/25 12:06:50;;;;;;;5.27;1.50;;;;;;;;;;5053382;28;20451;-43
2022/10/25 12:09:22;;;;;;;4.63;1.80;;;;;;;;;;5051819;28;20463;-43
2022/10/25 12:12:01;;;;;;;3.53;2.70;;;;;;;;;;5052313;28;20390;-43
2022/10/25 12:14:30;;;;;;;10.23;2.23;;;;;;;;;;5052041;28;20423;-43
2022/10/25 12:16:57;;;;;;;3.93;1.57;;;;;;;;;;5051936;28;20969;-43
2022/10/25 12:19:25;;;;;;;3.10;1.60;;;;;;;;;;5051499;28;20425;-43
2022/10/25 12:21:54;;;;;;;2.63;1.50;;;;;;;;;;5052192;28;20462;-43
2022/10/25 12:24:22;;;;;;;11.37;2.30;;;;;;;;;;5051841;28;20409;-43
2022/10/25 12:26:49;;;;;;;2.97;1.40;;;;;;;;;;5052438;28;20416;-43
2022/10/25 12:29:21;;;;;;;8.73;1.30;;;;;;;;;;5051682;28;20457;-43
2022/10/25 12:31:50;;;;;;;2.63;1.40;;;;;;;;;;5051881;28;20435;-43
2022/10/25 12:34:21;;;;;;;2.97;1.47;;;;;;;;;;5051685;28;20917;-44
2022/10/25 12:36:55;;;;;;;3.60;1.67;;;;;;;;;;5051406;28;20483;-43
2022/10/25 12:39:33;;;;;;;2.10;1.60;;;;;;;;;;5051478;28;20453;-43
2022/10/25 12:42:02;;;;;;;4.07;1.87;;;;;;;;;;5052075;28;20452;-42
2022/10/25 12:44:48;;;;;;;3.10;1.10;;;;;;;;;;5051638;28;20615;-43
2022/10/25 12:47:23;;;;;;;5.07;1.37;;;;;;;;;;5052304;28;20752;-43
2022/10/25 12:50:17;;;;;;;4.40;1.43;;;;;;;;;;5043803;28;20464;-43
2022/10/25 12:52:52;;;;;;;2.80;1.40;;;;;;;;;;5036162;28;20425;-47
2022/10/25 12:55:28;;;;;;;4.50;1.20;;;;;;;;;;5032751;28;20405;-45
2022/10/25 12:58:06;;;;;;;8.37;2.47;;;;;;;;;;5034120;28;20397;-45
2022/10/25 13:00:36;;;;;;;2.80;1.30;;;;;;;;;;5033190;28;20461;-45
2022/10/25 13:03:02;;;;;;;5.43;1.97;;;;;;;;;;5033209;28;20482;-46
2022/10/25 13:05:52;;;;;;;2.70;1.47;;;;;;;;;;5032769;28;20489;-46
2022/10/25 13:08:20;;;;;;;8.67;1.60;;;;;;;;;;5013314;28;20473;-46
2022/10/25 13:10:49;;;;;;;2.93;1.63;;;;;;;;;;5032424;28;20430;-44
2022/10/25 13:13:18;;;;;;;7.00;1.60;;;;;;;;;;5033585;28;20475;-44
2022/10/25 13:15:49;;;;;;;2.90;1.70;;;;;;;;;;5033760;28;20414;-46
2022/10/25 13:18:33;;;;;;;10.93;1.90;;;;;;;;;;5034018;28;20410;-45
2022/10/25 13:21:01;;;;;;;5.00;2.10;;;;;;;;;;5034127;28;20420;-45
2022/10/25 13:23:48;;;;;;;6.93;1.93;;;;;;;;;;5053686;28;20405;-45
2022/10/25 13:26:18;;;;;;;5.33;1.90;;;;;;;;;;5053724;28;20460;-43
2022/10/25 13:28:51;;;;;;;8.67;1.87;;;;;;;;;;5052750;28;20451;-43
2022/10/25 13:31:35;;;;;;;6.60;1.93;;;;;;;;;;5052375;28;20412;-46
2022/10/25 13:34:14;;;;;;;7.03;1.80;;;;;;;;;;5052344;28;20413;-45
2022/10/25 13:36:53;;;;;;;5.33;1.60;;;;;;;;;;5052977;28;20764;-43
2022/10/25 13:39:25;;;;;;;2.93;1.60;;;;;;;;;;5052221;28;20436;-44
2022/10/25 13:41:54;;;;;;;2.10;1.20;;;;;;;;;;5053609;28;20405;-46
2022/10/25 13:44:26;;;;;;;5.80;1.60;;;;;;;;;;5053051;28;20938;-45
2022/10/25 13:46:53;;;;;;;7.63;1.63;;;;;;;;;;5054123;28;20401;-45
2022/10/25 13:49:38;;;;;;;7.20;2.03;;;;;;;;;;5056453;28;20484;-43
2022/10/25 13:52:06;;;;;;;3.50;1.70;;;;;;;;;;5057610;28;20912;-46
2022/10/25 13:54:53;;;;;;;4.40;1.83;;;;;;;;;;5056712;28;20404;-43
2022/10/25 13:57:37;;;;;;;4.43;2.10;;;;;;;;;;5056626;28;20393;-46
2022/10/25 14:00:10;;;;;;;5.33;1.80;;;;;;;;;;5056315;28;20460;-47
2022/10/25 14:02:55;;;;;;;2.83;1.90;;;;;;;;;;5056894;28;20531;-46
2022/10/25 14:05:40;;;;;;;5.30;2.20;;;;;;;;;;5056444;28;20411;-46
2022/10/25 14:08:14;;;;;;;2.63;1.90;;;;;;;;;;5070183;28;21129;-45
2022/10/25 14:10:40;;;;;;;5.73;2.30;;;;;;;;;;5056026;28;20435;-45
2022/10/25 14:13:13;;;;;;;5.50;2.33;;;;;;;;;;5057583;28;20407;-46
2022/10/25 14:15:43;;;;;;;4.13;2.27;;;;;;;;;;5056965;28;20403;-45
2022/10/25 14:18:14;;;;;;;8.80;2.40;;;;;;;;;;5057655;28;20411;-45
2022/10/25 14:20:43;;;;;;;5.00;2.70;;;;;;;;;;5056169;28;20423;-46
2022/10/25 14:23:14;;;;;;;8.37;2.70;;;;;;;;;;5056822;28;20395;-46
2022/10/25 14:25:41;;;;;;;9.47;2.37;;;;;;;;;;5056834;28;20499;-46
2022/10/25 14:28:10;;;;;;;3.93;2.40;;;;;;;;;;5057179;28;20811;-44
2022/10/25 14:31:08;;;;;;;2.23;2.00;;;;;;;;;;5055807;28;20511;-44
2022/10/25 14:33:49;;;;;;;7.07;2.40;;;;;;;;;;5046610;28;20399;-46
2022/10/25 14:36:21;;;;;;;8.23;2.63;;;;;;;;;;5036263;28;20754;-45
2022/10/25 14:38:53;;;;;;;2.40;2.20;;;;;;;;;;5036823;28;20406;-46
2022/10/25 14:41:20;;;;;;;4.80;2.23;;;;;;;;;;5036202;28;20399;-46
2022/10/25 14:43:48;;;;;;;4.70;3.00;;;;;;;;;;5036124;28;20407;-46
2022/10/25 14:46:14;;;;;;;10.93;2.27;;;;;;;;;;5036182;28;20389;-45
2022/10/25 14:48:45;;;;;;;7.10;2.93;;;;;;;;;;5035758;28;21029;-47
2022/10/25 14:51:31;;;;;;;6.23;1.90;;;;;;;;;;5035301;28;20368;-44
2022/10/25 14:54:10;;;;;;;4.83;2.10;;;;;;;;;;5035683;28;20378;-44
2022/10/25 14:56:37;;;;;;;2.50;2.30;;;;;;;;;;5037324;28;20410;-42